createdAt,value
2017-12-23T00:00:16.133Z,76.31
2017-12-23T00:02:44.545Z,76.71
2017-12-23T00:05:12.969Z,76.77
2017-12-23T00:07:41.395Z,76.87
2017-12-23T00:10:09.777Z,76.86
2017-12-23T00:12:38.092Z,77.03
2017-12-23T00:15:06.425Z,76.70
2017-12-23T00:20:32.314Z,76.53
2017-12-23T00:23:00.698Z,77.29
2017-12-23T00:25:29.068Z,78.64
2017-12-23T00:27:57.823Z,77.60
2017-12-23T00:30:26.936Z,77.21
2017-12-23T00:32:55.266Z,77.11
2017-12-23T00:35:23.923Z,77.87
2017-12-23T00:37:52.284Z,78.11
2017-12-23T00:40:20.627Z,77.55
2017-12-23T00:42:49.421Z,77.38
2017-12-23T00:45:17.835Z,77.61
2017-12-23T00:47:46.219Z,77.59
2017-12-23T00:50:15.027Z,78.10
2017-12-23T00:52:43.376Z,78.01
2017-12-23T00:55:12.488Z,77.49
2017-12-23T00:57:41.091Z,77.65
2017-12-23T01:00:09.438Z,78.00
2017-12-23T01:02:37.763Z,78.04
2017-12-23T01:05:06.916Z,78.34
2017-12-23T01:07:35.276Z,78.18
2017-12-23T01:10:04.397Z,77.38
2017-12-23T01:12:33.192Z,78.48
2017-12-23T01:15:01.546Z,78.91
2017-12-23T01:17:29.895Z,79.79
2017-12-23T01:19:58.546Z,79.59
2017-12-23T01:22:27.117Z,78.76
2017-12-23T01:24:56.248Z,78.53
2017-12-23T01:27:26.064Z,78.39
2017-12-23T01:29:54.386Z,78.19
2017-12-23T01:32:22.747Z,78.00
2017-12-23T01:34:51.400Z,78.02
2017-12-23T01:37:19.735Z,78.13
2017-12-23T01:39:48.855Z,78.60
2017-12-23T01:42:17.632Z,79.16
2017-12-23T01:44:49.047Z,79.18
2017-12-23T01:47:18.149Z,79.08
2017-12-23T01:49:47.178Z,78.69
2017-12-23T01:52:15.518Z,78.95
2017-12-23T01:54:43.997Z,78.32
2017-12-23T01:57:12.674Z,78.38
2017-12-23T01:59:41.075Z,78.12
2017-12-23T02:02:09.520Z,77.69
2017-12-23T02:04:38.168Z,78.21
2017-12-23T02:07:06.529Z,78.41
2017-12-23T02:09:34.856Z,78.68
2017-12-23T02:12:03.554Z,78.42
2017-12-23T02:14:31.884Z,77.82
2017-12-23T02:17:00.266Z,77.13
2017-12-23T02:19:29.614Z,76.96
2017-12-23T02:21:57.957Z,76.94
2017-12-23T02:24:27.118Z,77.02
2017-12-23T02:26:56.072Z,76.96
2017-12-23T02:29:24.437Z,76.51
2017-12-23T02:31:54.162Z,77.05
2017-12-23T02:34:22.952Z,77.81
2017-12-23T02:36:51.287Z,78.16
2017-12-23T02:39:19.641Z,79.36
2017-12-23T02:41:48.391Z,78.49
2017-12-23T02:44:16.729Z,79.01
2017-12-23T02:46:45.083Z,79.35
2017-12-23T02:49:13.834Z,80.26
2017-12-23T02:51:42.212Z,80.71
2017-12-23T02:54:10.591Z,81.08
2017-12-23T02:56:39.380Z,81.24
2017-12-23T02:59:07.776Z,80.93
2017-12-23T03:01:36.110Z,80.21
2017-12-23T03:04:05.308Z,79.88
2017-12-23T03:06:33.726Z,79.58
2017-12-23T03:09:02.165Z,79.37
2017-12-23T03:11:30.547Z,79.87
2017-12-23T03:13:59.028Z,80.78
2017-12-23T03:16:27.427Z,80.39
2017-12-23T03:18:57.286Z,79.88
2017-12-23T03:21:25.767Z,79.82
2017-12-23T03:23:54.154Z,80.47
2017-12-23T03:26:22.670Z,81.60
2017-12-23T03:28:51.146Z,80.96
2017-12-23T03:31:20.446Z,80.58
2017-12-23T03:33:48.926Z,81.59
2017-12-23T03:36:17.292Z,81.62
2017-12-23T03:38:45.804Z,82.00
2017-12-23T03:41:15.061Z,82.08
2017-12-23T03:43:43.467Z,83.00
2017-12-23T03:46:11.826Z,83.05
2017-12-23T03:48:40.281Z,82.63
2017-12-23T03:51:08.689Z,82.52
2017-12-23T03:53:37.187Z,81.76
2017-12-23T03:56:05.667Z,81.30
2017-12-23T03:58:34.053Z,81.83
2017-12-23T04:01:03.251Z,81.55
2017-12-23T04:03:32.052Z,81.06
2017-12-23T04:06:01.238Z,80.74
2017-12-23T04:08:29.731Z,81.74
2017-12-23T04:10:58.163Z,81.56
2017-12-23T04:13:26.513Z,81.72
2017-12-23T04:15:54.939Z,82.56
2017-12-23T04:18:23.433Z,82.40
2017-12-23T04:20:51.843Z,81.92
2017-12-23T04:23:20.251Z,81.91
2017-12-23T04:25:49.221Z,81.43
2017-12-23T04:28:17.585Z,81.82
2017-12-23T04:30:46.068Z,82.75
2017-12-23T04:33:14.445Z,83.43
2017-12-23T04:35:43.599Z,83.06
2017-12-23T04:38:12.002Z,83.27
2017-12-23T04:40:40.492Z,82.04
2017-12-23T04:43:09.791Z,81.40
2017-12-23T04:45:38.924Z,81.49
2017-12-23T04:48:07.757Z,82.02
2017-12-23T04:50:36.116Z,81.69
2017-12-23T04:53:04.543Z,81.37
2017-12-23T04:55:33.794Z,81.47
2017-12-23T04:58:02.321Z,81.50
2017-12-23T05:00:30.923Z,80.93
2017-12-23T05:02:59.462Z,80.61
2017-12-23T05:05:28.666Z,81.15
2017-12-23T05:07:57.264Z,81.61
2017-12-23T05:10:26.798Z,81.42
2017-12-23T05:12:55.236Z,82.28
2017-12-23T05:15:23.626Z,82.21
2017-12-23T05:17:52.060Z,81.65
2017-12-23T05:20:20.545Z,81.32
2017-12-23T05:22:48.967Z,81.31
2017-12-23T05:25:17.463Z,82.10
2017-12-23T05:27:46.751Z,81.73
2017-12-23T05:30:15.227Z,81.62
2017-12-23T05:32:43.810Z,82.41
2017-12-23T05:35:12.262Z,82.95
2017-12-23T05:37:40.680Z,82.31
2017-12-23T05:40:09.118Z,81.52
2017-12-23T05:42:37.690Z,81.87
2017-12-23T05:45:06.117Z,82.97
2017-12-23T05:47:35.314Z,82.48
2017-12-23T05:50:03.738Z,83.10
2017-12-23T05:52:32.089Z,82.64
2017-12-23T05:55:01.682Z,82.29
2017-12-23T05:57:39.685Z,82.86
2017-12-23T06:00:08.114Z,83.18
2017-12-23T06:02:36.548Z,83.23
2017-12-23T06:05:04.934Z,82.59
2017-12-23T06:07:33.472Z,82.88
2017-12-23T06:10:01.891Z,82.71
2017-12-23T06:12:30.474Z,82.73
2017-12-23T06:14:59.773Z,83.51
2017-12-23T06:17:28.259Z,82.63
2017-12-23T06:19:56.738Z,82.69
2017-12-23T06:22:25.205Z,82.72
2017-12-23T06:24:54.626Z,82.88
2017-12-23T06:27:23.040Z,83.29
2017-12-23T06:29:51.601Z,84.01
2017-12-23T06:32:20.076Z,84.20
2017-12-23T06:34:49.232Z,83.86
2017-12-23T06:37:18.203Z,84.42
2017-12-23T06:39:46.582Z,84.52
2017-12-23T06:42:14.922Z,84.71
2017-12-23T06:44:43.324Z,84.18
2017-12-23T06:47:11.780Z,85.01
2017-12-23T06:49:40.238Z,84.63
2017-12-23T06:52:08.720Z,84.35
2017-12-23T06:54:37.172Z,84.64
2017-12-23T06:57:05.707Z,84.87
2017-12-23T06:59:34.514Z,84.80
2017-12-23T07:02:03.798Z,84.67
2017-12-23T07:04:32.249Z,84.15
2017-12-23T07:07:00.769Z,83.95
2017-12-23T07:09:29.259Z,84.19
2017-12-23T07:11:58.552Z,84.41
2017-12-23T07:14:27.117Z,84.59
2017-12-23T07:16:55.527Z,84.56
2017-12-23T07:19:24.640Z,83.95
2017-12-23T07:21:53.604Z,84.69
2017-12-23T07:24:22.081Z,84.54
2017-12-23T07:26:50.461Z,84.79
2017-12-23T07:29:19.012Z,84.31
2017-12-23T07:31:47.424Z,83.48
2017-12-23T07:34:15.802Z,84.20
2017-12-23T07:36:44.185Z,84.34
2017-12-23T07:39:12.567Z,85.12
2017-12-23T07:41:41.048Z,84.20
2017-12-23T07:44:09.811Z,85.08
2017-12-23T07:46:38.259Z,83.99
2017-12-23T07:49:06.599Z,84.62
2017-12-23T07:51:34.978Z,84.66
2017-12-23T07:54:03.458Z,85.69
2017-12-23T07:56:31.835Z,85.36
2017-12-23T07:59:00.286Z,85.41
2017-12-23T08:01:29.444Z,85.32
2017-12-23T08:03:58.610Z,84.95
2017-12-23T08:06:27.408Z,85.25
2017-12-23T08:08:55.876Z,85.04
2017-12-23T08:11:24.305Z,84.91
2017-12-23T08:13:52.727Z,84.82
2017-12-23T08:16:21.235Z,84.67
2017-12-23T08:18:49.689Z,83.93
2017-12-23T08:21:18.128Z,84.64
2017-12-23T08:23:46.474Z,84.02
2017-12-23T08:26:14.893Z,84.89
2017-12-23T08:28:43.482Z,85.01
2017-12-23T08:31:11.903Z,84.59
2017-12-23T08:33:40.377Z,84.35
2017-12-23T08:36:08.857Z,83.98
2017-12-23T08:38:37.265Z,84.47
2017-12-23T08:41:06.466Z,84.12
2017-12-23T08:43:35.126Z,84.29
2017-12-23T08:46:03.595Z,84.49
2017-12-23T08:48:32.082Z,84.50
2017-12-23T08:51:00.836Z,84.23
2017-12-23T08:53:29.275Z,83.98
2017-12-23T08:55:57.865Z,83.78
2017-12-23T08:58:26.571Z,84.20
2017-12-23T09:00:55.829Z,83.74
2017-12-23T09:03:24.294Z,84.32
2017-12-23T09:05:52.815Z,84.16
2017-12-23T09:08:22.093Z,84.08
2017-12-23T09:10:50.573Z,84.36
2017-12-23T09:13:19.761Z,84.46
2017-12-23T09:15:48.167Z,83.55
2017-12-23T09:18:16.590Z,83.61
2017-12-23T09:20:45.048Z,83.53
2017-12-23T09:23:13.515Z,83.45
2017-12-23T09:25:41.977Z,84.22
2017-12-23T09:28:11.179Z,83.87
2017-12-23T09:30:39.600Z,83.99
2017-12-23T09:33:08.879Z,83.24
2017-12-23T09:35:37.461Z,83.66
2017-12-23T09:38:05.866Z,83.50
2017-12-23T09:40:34.219Z,83.14
2017-12-23T09:43:02.641Z,82.94
2017-12-23T09:45:31.094Z,83.34
2017-12-23T09:47:59.465Z,83.63
2017-12-23T09:50:27.900Z,83.54
2017-12-23T09:52:56.235Z,83.62
2017-12-23T09:55:25.427Z,83.16
2017-12-23T09:57:53.974Z,82.82
2017-12-23T10:00:22.335Z,81.71
2017-12-23T10:02:50.751Z,82.69
2017-12-23T10:05:19.206Z,83.68
2017-12-23T10:07:47.520Z,83.39
2017-12-23T10:10:15.862Z,83.43
2017-12-23T10:12:44.217Z,82.78
2017-12-23T10:15:12.625Z,82.51
2017-12-23T10:17:40.976Z,82.97
2017-12-23T10:20:09.467Z,82.33
2017-12-23T10:22:37.825Z,82.07
2017-12-23T10:25:06.924Z,82.72
2017-12-23T10:27:36.063Z,81.88
2017-12-23T10:30:05.460Z,81.75
2017-12-23T10:32:33.876Z,82.82
2017-12-23T10:35:02.261Z,83.25
2017-12-23T10:37:30.621Z,82.61
2017-12-23T10:39:59.002Z,83.03
2017-12-23T10:42:27.647Z,81.71
2017-12-23T10:44:56.053Z,82.52
2017-12-23T10:47:24.475Z,82.54
2017-12-23T10:49:53.650Z,82.67
2017-12-23T10:52:22.006Z,82.70
2017-12-23T10:54:50.430Z,81.99
2017-12-23T10:57:19.546Z,82.20
2017-12-23T10:59:47.902Z,82.35
2017-12-23T11:02:16.277Z,81.09
2017-12-23T11:04:44.994Z,81.31
2017-12-23T11:07:13.359Z,81.57
2017-12-23T11:09:42.632Z,81.66
2017-12-23T11:12:10.979Z,82.21
2017-12-23T11:14:39.307Z,81.57
2017-12-23T11:17:07.679Z,81.60
2017-12-23T11:19:36.107Z,81.32
2017-12-23T11:22:04.449Z,81.37
2017-12-23T11:24:33.554Z,81.26
2017-12-23T11:27:03.009Z,81.46
2017-12-23T11:29:31.396Z,81.37
2017-12-23T11:32:00.267Z,82.01
2017-12-23T11:34:28.645Z,82.47
2017-12-23T11:36:57.031Z,82.44
2017-12-23T11:39:25.399Z,82.17
2017-12-23T11:41:53.755Z,82.11
2017-12-23T11:44:22.195Z,82.05
2017-12-23T11:46:51.299Z,81.98
2017-12-23T11:49:19.978Z,81.87
2017-12-23T11:51:48.351Z,81.55
2017-12-23T11:54:16.711Z,82.08
2017-12-23T11:56:45.082Z,81.31
2017-12-23T11:59:13.406Z,82.14
2017-12-23T12:01:42.612Z,82.46
2017-12-23T12:04:11.408Z,82.35
2017-12-23T12:06:40.616Z,82.25
2017-12-23T12:09:09.316Z,83.13
2017-12-23T12:11:38.000Z,83.59
2017-12-23T12:14:06.398Z,82.36
2017-12-23T12:16:34.735Z,82.69
2017-12-23T12:21:38.320Z,81.72
2017-12-23T12:24:06.734Z,82.50
2017-12-23T12:26:35.854Z,83.13
2017-12-23T12:29:05.211Z,83.77
2017-12-23T12:31:33.723Z,82.80
2017-12-23T12:34:02.842Z,81.87
2017-12-23T12:36:31.978Z,82.48
2017-12-23T12:39:00.855Z,81.78
2017-12-23T12:41:29.176Z,81.82
2017-12-23T12:43:59.371Z,82.83
2017-12-23T12:46:27.743Z,82.72
2017-12-23T12:48:56.108Z,81.84
2017-12-23T12:51:24.509Z,81.85
2017-12-23T12:53:53.179Z,81.58
2017-12-23T12:56:21.576Z,81.52
2017-12-23T12:58:49.903Z,82.05
2017-12-23T13:01:18.314Z,81.08
2017-12-23T13:03:46.702Z,82.13
2017-12-23T13:06:15.045Z,82.14
2017-12-23T13:08:43.419Z,81.41
2017-12-23T13:11:12.517Z,81.50
2017-12-23T13:13:41.646Z,81.34
2017-12-23T13:16:10.541Z,81.43
2017-12-23T13:18:38.917Z,80.07
2017-12-23T13:21:07.253Z,80.06
2017-12-23T13:23:36.387Z,80.61
2017-12-23T13:26:04.763Z,79.88
2017-12-23T13:28:33.141Z,79.85
2017-12-23T13:31:01.571Z,79.80
2017-12-23T13:33:30.699Z,79.41
2017-12-23T13:35:59.044Z,79.92
2017-12-23T13:38:27.459Z,80.55
2017-12-23T13:40:55.867Z,80.45
2017-12-23T13:43:24.178Z,80.33
2017-12-23T13:45:52.594Z,81.31
2017-12-23T13:48:21.050Z,81.07
2017-12-23T13:50:49.418Z,81.03
2017-12-23T13:53:18.596Z,80.19
2017-12-23T13:55:46.962Z,79.98
2017-12-23T13:58:15.369Z,80.25
2017-12-23T14:00:44.367Z,80.43
2017-12-23T14:03:12.744Z,80.35
2017-12-23T14:05:41.133Z,80.14
2017-12-23T14:08:09.534Z,80.33
2017-12-23T14:10:38.638Z,79.94
2017-12-23T14:13:06.981Z,80.40
2017-12-23T14:15:35.359Z,81.01
2017-12-23T14:18:03.696Z,81.92
2017-12-23T14:20:32.017Z,81.94
2017-12-23T14:23:00.973Z,82.65
2017-12-23T14:25:29.324Z,82.10
2017-12-23T14:27:58.410Z,82.01
2017-12-23T14:30:27.539Z,82.13
2017-12-23T14:32:55.842Z,81.64
2017-12-23T14:35:24.187Z,81.08
2017-12-23T14:37:52.543Z,80.25
2017-12-23T14:40:20.913Z,80.22
2017-12-23T14:42:49.258Z,80.45
2017-12-23T14:45:17.808Z,80.63
2017-12-23T14:47:46.170Z,80.78
2017-12-23T14:50:14.497Z,80.99
2017-12-23T14:52:42.856Z,81.49
2017-12-23T14:55:11.181Z,81.58
2017-12-23T14:57:39.531Z,81.11
2017-12-23T15:00:07.938Z,81.57
2017-12-23T15:02:36.247Z,82.32
2017-12-23T15:05:04.608Z,81.41
2017-12-23T15:07:34.202Z,81.32
2017-12-23T15:10:02.543Z,81.68
2017-12-23T15:12:30.867Z,81.86
2017-12-23T15:14:59.999Z,82.15
2017-12-23T15:17:28.341Z,81.75
2017-12-23T15:19:56.671Z,81.38
2017-12-23T15:22:25.066Z,81.62
2017-12-23T15:24:53.361Z,81.89
2017-12-23T15:27:21.732Z,81.52
2017-12-23T15:29:50.263Z,82.41
2017-12-23T15:32:18.608Z,82.88
2017-12-23T15:34:46.957Z,82.89
2017-12-23T15:37:15.319Z,83.36
2017-12-23T15:39:43.640Z,83.06
2017-12-23T15:42:12.007Z,83.07
2017-12-23T15:44:40.383Z,83.25
2017-12-23T15:47:08.736Z,83.09
2017-12-23T15:49:37.046Z,82.94
2017-12-23T15:52:06.073Z,83.30
2017-12-23T15:54:34.376Z,82.98
2017-12-23T15:57:02.707Z,82.97
2017-12-23T15:59:31.083Z,82.76
2017-12-23T16:01:59.389Z,82.29
2017-12-23T16:04:28.507Z,82.55
2017-12-23T16:06:56.932Z,82.66
2017-12-23T16:09:25.245Z,82.18
2017-12-23T16:11:54.362Z,82.73
2017-12-23T16:14:23.212Z,83.12
2017-12-23T16:16:51.603Z,82.82
2017-12-23T16:19:20.700Z,82.27
2017-12-23T16:21:49.847Z,82.39
2017-12-23T16:24:18.206Z,82.91
2017-12-23T16:26:46.576Z,82.69
2017-12-23T16:29:14.946Z,82.43
2017-12-23T16:31:44.047Z,82.44
2017-12-23T16:34:12.410Z,82.33
2017-12-23T16:36:41.943Z,82.79
2017-12-23T16:39:10.261Z,83.25
2017-12-23T16:41:38.630Z,83.08
2017-12-23T16:44:07.014Z,83.66
2017-12-23T16:46:35.432Z,83.35
2017-12-23T16:49:04.546Z,83.00
2017-12-23T16:51:32.946Z,83.36
2017-12-23T16:54:01.277Z,83.01
2017-12-23T16:56:29.609Z,83.12
2017-12-23T16:58:58.341Z,82.10
2017-12-23T17:01:27.536Z,81.96
2017-12-23T17:03:55.894Z,81.72
2017-12-23T17:06:24.323Z,81.96
2017-12-23T17:08:53.418Z,80.87
2017-12-23T17:11:21.787Z,80.89
2017-12-23T17:13:50.924Z,81.29
2017-12-23T17:16:19.260Z,81.55
2017-12-23T17:18:48.361Z,82.21
2017-12-23T17:21:17.118Z,82.72
2017-12-23T17:23:45.454Z,82.51
2017-12-23T17:26:13.845Z,82.35
2017-12-23T17:28:59.996Z,82.08
2017-12-23T17:31:28.466Z,82.33
2017-12-23T17:33:56.798Z,82.39
2017-12-23T17:36:26.106Z,82.21
2017-12-23T17:38:54.482Z,82.90
2017-12-23T17:41:22.838Z,82.43
2017-12-23T17:43:51.311Z,82.64
2017-12-23T17:46:20.429Z,82.45
2017-12-23T17:48:48.742Z,81.87
2017-12-23T17:51:17.451Z,81.66
2017-12-23T17:53:45.811Z,81.74
2017-12-23T17:56:14.176Z,81.62
2017-12-23T17:58:43.038Z,82.71
2017-12-23T18:01:11.410Z,82.70
2017-12-23T18:03:39.751Z,82.47
2017-12-23T18:06:08.102Z,83.04
2017-12-23T18:08:36.438Z,82.79
2017-12-23T18:11:05.902Z,83.08
2017-12-23T18:13:34.254Z,83.07
2017-12-23T18:16:02.588Z,83.20
2017-12-23T18:18:30.923Z,83.45
2017-12-23T18:21:00.308Z,83.24
2017-12-23T18:23:28.651Z,83.09
2017-12-23T18:25:57.809Z,82.57
2017-12-23T18:28:26.164Z,82.97
2017-12-23T18:30:54.499Z,82.59
2017-12-23T18:33:22.810Z,82.38
2017-12-23T18:35:51.206Z,82.28
2017-12-23T18:38:19.570Z,83.08
2017-12-23T18:40:47.905Z,82.88
2017-12-23T18:43:16.466Z,83.20
2017-12-23T18:45:44.778Z,82.89
2017-12-23T18:48:13.124Z,82.62
2017-12-23T18:50:41.534Z,82.90
2017-12-23T18:53:09.868Z,82.25
2017-12-23T18:55:38.200Z,82.60
2017-12-23T18:58:07.316Z,82.14
2017-12-23T19:00:35.666Z,81.81
2017-12-23T19:03:04.023Z,82.21
2017-12-23T19:05:32.794Z,82.20
2017-12-23T19:08:01.116Z,82.56
2017-12-23T19:10:30.241Z,82.43
2017-12-23T19:12:58.596Z,82.22
2017-12-23T19:15:27.779Z,81.83
2017-12-23T19:17:56.114Z,82.07
2017-12-23T19:20:24.463Z,81.50
2017-12-23T19:22:53.586Z,81.40
2017-12-23T19:25:21.905Z,81.53
2017-12-23T19:27:50.834Z,81.39
2017-12-23T19:30:19.381Z,82.20
2017-12-23T19:32:47.765Z,82.04
2017-12-23T19:35:16.379Z,82.36
2017-12-23T19:37:45.479Z,81.99
2017-12-23T19:40:13.802Z,81.99
2017-12-23T19:42:42.179Z,82.48
2017-12-23T19:45:10.500Z,82.26
2017-12-23T19:47:39.595Z,82.49
2017-12-23T19:50:09.434Z,82.08
2017-12-23T19:52:38.582Z,82.43
2017-12-23T19:55:06.950Z,82.09
2017-12-23T19:57:35.332Z,81.88
2017-12-23T20:00:03.697Z,81.79
2017-12-23T20:02:32.019Z,82.33
2017-12-23T20:05:00.447Z,82.53
2017-12-23T20:07:28.766Z,82.12
2017-12-23T20:09:57.119Z,82.15
2017-12-23T20:12:26.002Z,82.30
2017-12-23T20:14:54.339Z,82.00
2017-12-23T20:17:23.449Z,81.73
2017-12-23T20:19:51.811Z,81.15
2017-12-23T20:22:20.910Z,80.79
2017-12-23T20:24:49.297Z,81.75
2017-12-23T20:27:17.650Z,81.01
2017-12-23T20:29:46.802Z,82.17
2017-12-23T20:32:15.147Z,82.23
2017-12-23T20:34:43.678Z,81.76
2017-12-23T20:37:12.002Z,81.46
2017-12-23T20:39:41.128Z,81.27
2017-12-23T20:42:09.508Z,81.56
2017-12-23T20:44:37.860Z,81.96
2017-12-23T20:47:06.255Z,82.27
2017-12-23T20:49:34.882Z,82.15
2017-12-23T20:52:03.219Z,81.78
2017-12-23T20:54:31.549Z,81.06
2017-12-23T20:57:00.043Z,82.11
2017-12-23T20:59:28.387Z,82.58
2017-12-23T21:01:56.717Z,82.04
2017-12-23T21:04:25.870Z,81.80
2017-12-23T21:06:54.262Z,82.11
2017-12-23T21:09:23.411Z,81.88
2017-12-23T21:11:51.899Z,81.57
2017-12-23T21:14:20.436Z,82.34
2017-12-23T21:16:49.646Z,81.30
2017-12-23T21:19:19.407Z,81.34
2017-12-23T21:21:48.722Z,81.77
2017-12-23T21:24:17.223Z,81.38
2017-12-23T21:26:45.883Z,80.75
2017-12-23T21:29:14.993Z,80.65
2017-12-23T21:31:43.520Z,80.63
2017-12-23T21:34:11.920Z,80.57
2017-12-23T21:36:40.287Z,80.18
2017-12-23T21:39:10.152Z,80.01
2017-12-23T21:41:41.165Z,80.67
2017-12-23T21:44:09.573Z,80.46
2017-12-23T21:46:38.021Z,80.66
2017-12-23T21:49:06.422Z,80.80
2017-12-23T21:51:34.783Z,80.47
2017-12-23T21:54:03.138Z,80.71
2017-12-23T21:56:31.513Z,80.69
2017-12-23T21:59:04.421Z,80.59
2017-12-23T22:01:33.491Z,80.80
2017-12-23T22:04:01.837Z,80.83
2017-12-23T22:06:30.234Z,80.27
2017-12-23T22:08:58.635Z,80.57
2017-12-23T22:11:27.750Z,80.78
2017-12-23T22:13:56.113Z,80.18
2017-12-23T22:16:24.478Z,81.00
2017-12-23T22:18:53.602Z,81.08
2017-12-23T22:21:21.958Z,81.66
2017-12-23T22:23:51.054Z,81.22
2017-12-23T22:26:19.465Z,81.18
2017-12-23T22:28:47.821Z,81.25
2017-12-23T22:31:16.953Z,81.97
2017-12-23T22:33:45.370Z,81.79
2017-12-23T22:36:13.712Z,81.07
2017-12-23T22:38:42.559Z,81.51
2017-12-23T22:41:10.898Z,81.69
2017-12-23T22:43:39.223Z,82.44
2017-12-23T22:46:07.987Z,82.21
2017-12-23T22:48:36.298Z,81.47
2017-12-23T22:51:04.642Z,81.16
2017-12-23T22:53:32.984Z,81.70
2017-12-23T22:56:01.324Z,81.33
2017-12-23T22:58:30.433Z,81.23
2017-12-23T23:00:58.819Z,81.42
2017-12-23T23:03:27.159Z,80.78
2017-12-23T23:05:56.263Z,80.67
2017-12-23T23:11:22.731Z,81.58
2017-12-23T23:13:51.049Z,81.10
2017-12-23T23:16:19.362Z,81.45
2017-12-23T23:18:47.743Z,81.96
2017-12-23T23:21:16.105Z,81.58
2017-12-23T23:23:44.453Z,81.56
2017-12-23T23:26:12.923Z,82.42
2017-12-23T23:28:41.310Z,81.32
2017-12-23T23:31:09.687Z,81.07
2017-12-23T23:33:38.430Z,80.51
2017-12-23T23:36:06.777Z,80.82
2017-12-23T23:38:35.873Z,81.31
2017-12-23T23:41:04.292Z,81.26
2017-12-23T23:43:32.631Z,80.82
2017-12-23T23:46:00.975Z,81.30
2017-12-23T23:48:29.380Z,81.89
2017-12-23T23:50:57.773Z,80.88
2017-12-23T23:53:26.118Z,81.20
2017-12-23T23:55:54.725Z,80.99
2017-12-23T23:58:23.076Z,81.46
